sensor_id;sensor_type;location;lat;lon;timestamp;temperature;humidity
15617;DHT22;7908;51.688;7.130;2023-03-29T00:01:31;4.70;99.90
15617;DHT22;7908;51.688;7.130;2023-03-29T00:04:02;4.70;99.90
15617;DHT22;7908;51.688;7.130;2023-03-29T00:06:32;4.70;99.90
15617;DHT22;7908;51.688;7.130;2023-03-29T00:09:01;4.70;99.90
15617;DHT22;7908;51.688;7.130;2023-03-29T00:11:32;4.70;99.90
15617;DHT22;7908;51.688;7.130;2023-03-29T00:14:01;4.70;99.90
15617;DHT22;7908;51.688;7.130;2023-03-29T00:16:31;4.70;99.90
15617;DHT22;7908;51.688;7.130;2023-03-29T00:19:00;4.70;99.90
15617;DHT22;7908;51.688;7.130;2023-03-29T00:21:28;4.70;99.90
15617;DHT22;7908;51.688;7.130;2023-03-29T00:23:57;4.70;99.90
15617;DHT22;7908;51.688;7.130;2023-03-29T00:26:25;4.70;99.90
15617;DHT22;7908;51.688;7.130;2023-03-29T00:28:54;4.60;99.90
15617;DHT22;7908;51.688;7.130;2023-03-29T00:31:23;4.60;99.90
15617;DHT22;7908;51.688;7.130;2023-03-29T00:33:53;4.60;99.90
15617;DHT22;7908;51.688;7.130;2023-03-29T00:36:22;4.60;99.90
15617;DHT22;7908;51.688;7.130;2023-03-29T00:38:51;4.60;99.90
15617;DHT22;7908;51.688;7.130;2023-03-29T00:41:20;4.60;99.90
15617;DHT22;7908;51.688;7.130;2023-03-29T00:43:53;4.60;99.90
15617;DHT22;7908;51.688;7.130;2023-03-29T00:46:23;4.70;99.90
15617;DHT22;7908;51.688;7.130;2023-03-29T00:48:57;4.70;99.90
15617;DHT22;7908;51.688;7.130;2023-03-29T00:51:29;4.70;99.90
15617;DHT22;7908;51.688;7.130;2023-03-29T00:54:02;4.70;99.90
15617;DHT22;7908;51.688;7.130;2023-03-29T00:56:34;4.70;99.90
15617;DHT22;7908;51.688;7.130;2023-03-29T00:59:07;4.70;99.90
15617;DHT22;7908;51.688;7.130;2023-03-29T01:01:41;4.70;99.90
15617;DHT22;7908;51.688;7.130;2023-03-29T01:04:18;4.70;99.90
15617;DHT22;7908;51.688;7.130;2023-03-29T01:06:52;4.70;99.90
15617;DHT22;7908;51.688;7.130;2023-03-29T01:09:25;4.70;99.90
15617;DHT22;7908;51.688;7.130;2023-03-29T01:12:00;4.70;99.90
15617;DHT22;7908;51.688;7.130;2023-03-29T01:14:33;4.70;99.90
15617;DHT22;7908;51.688;7.130;2023-03-29T01:17:03;4.70;99.90
15617;DHT22;7908;51.688;7.130;2023-03-29T01:19:37;4.70;99.90
15617;DHT22;7908;51.688;7.130;2023-03-29T01:22:14;4.70;99.90
15617;DHT22;7908;51.688;7.130;2023-03-29T01:24:57;4.80;99.90
15617;DHT22;7908;51.688;7.130;2023-03-29T01:27:46;4.70;99.90
15617;DHT22;7908;51.688;7.130;2023-03-29T01:30:21;4.70;99.90
15617;DHT22;7908;51.688;7.130;2023-03-29T01:32:54;4.70;99.90
15617;DHT22;7908;51.688;7.130;2023-03-29T01:35:30;4.70;99.90
15617;DHT22;7908;51.688;7.130;2023-03-29T01:38:05;4.80;99.90
15617;DHT22;7908;51.688;7.130;2023-03-29T01:40:35;4.80;99.90
15617;DHT22;7908;51.688;7.130;2023-03-29T01:43:11;4.80;99.90
15617;DHT22;7908;51.688;7.130;2023-03-29T01:45:46;4.80;99.90
15617;DHT22;7908;51.688;7.130;2023-03-29T01:48:22;4.80;99.90
15617;DHT22;7908;51.688;7.130;2023-03-29T01:50:56;4.90;99.90
15617;DHT22;7908;51.688;7.130;2023-03-29T01:53:29;4.80;99.90
15617;DHT22;7908;51.688;7.130;2023-03-29T01:56:04;4.80;99.90
15617;DHT22;7908;51.688;7.130;2023-03-29T01:58:38;4.70;99.90
15617;DHT22;7908;51.688;7.130;2023-03-29T02:01:09;4.70;99.90
15617;DHT22;7908;51.688;7.130;2023-03-29T02:03:43;4.70;99.90
15617;DHT22;7908;51.688;7.130;2023-03-29T02:06:18;4.70;99.90
15617;DHT22;7908;51.688;7.130;2023-03-29T02:08:48;4.70;99.90
15617;DHT22;7908;51.688;7.130;2023-03-29T02:11:18;4.70;99.90
15617;DHT22;7908;51.688;7.130;2023-03-29T02:13:49;4.80;99.90
15617;DHT22;7908;51.688;7.130;2023-03-29T02:16:18;4.80;99.90
15617;DHT22;7908;51.688;7.130;2023-03-29T02:18:48;4.80;99.90
15617;DHT22;7908;51.688;7.130;2023-03-29T02:21:24;4.80;99.90
15617;DHT22;7908;51.688;7.130;2023-03-29T02:23:54;4.80;99.90
15617;DHT22;7908;51.688;7.130;2023-03-29T02:26:25;4.80;99.90
15617;DHT22;7908;51.688;7.130;2023-03-29T02:28:56;4.80;99.90
15617;DHT22;7908;51.688;7.130;2023-03-29T02:31:28;4.80;99.90
15617;DHT22;7908;51.688;7.130;2023-03-29T02:34:02;4.80;99.90
15617;DHT22;7908;51.688;7.130;2023-03-29T02:36:38;4.80;99.90
15617;DHT22;7908;51.688;7.130;2023-03-29T02:39:09;4.80;99.90
15617;DHT22;7908;51.688;7.130;2023-03-29T02:41:43;4.80;99.90
15617;DHT22;7908;51.688;7.130;2023-03-29T02:44:17;4.70;99.90
15617;DHT22;7908;51.688;7.130;2023-03-29T02:46:47;4.80;99.90
15617;DHT22;7908;51.688;7.130;2023-03-29T02:49:17;4.80;99.90
15617;DHT22;7908;51.688;7.130;2023-03-29T02:51:46;4.80;99.90
15617;DHT22;7908;51.688;7.130;2023-03-29T02:54:18;4.70;99.90
15617;DHT22;7908;51.688;7.130;2023-03-29T02:56:53;4.80;99.90
15617;DHT22;7908;51.688;7.130;2023-03-29T02:59:25;4.80;99.90
15617;DHT22;7908;51.688;7.130;2023-03-29T03:01:55;4.80;99.90
15617;DHT22;7908;51.688;7.130;2023-03-29T03:04:25;4.70;99.90
15617;DHT22;7908;51.688;7.130;2023-03-29T03:06:54;4.70;99.90
15617;DHT22;7908;51.688;7.130;2023-03-29T03:09:22;4.70;99.90
15617;DHT22;7908;51.688;7.130;2023-03-29T03:11:51;4.70;99.90
15617;DHT22;7908;51.688;7.130;2023-03-29T03:14:20;4.70;99.90
15617;DHT22;7908;51.688;7.130;2023-03-29T03:16:50;4.70;99.90
15617;DHT22;7908;51.688;7.130;2023-03-29T03:19:21;4.70;99.90
15617;DHT22;7908;51.688;7.130;2023-03-29T03:21:50;4.70;99.90
15617;DHT22;7908;51.688;7.130;2023-03-29T03:24:19;4.80;99.90
15617;DHT22;7908;51.688;7.130;2023-03-29T03:26:48;4.70;99.90
15617;DHT22;7908;51.688;7.130;2023-03-29T03:29:16;4.80;99.90
15617;DHT22;7908;51.688;7.130;2023-03-29T03:31:45;4.80;99.90
15617;DHT22;7908;51.688;7.130;2023-03-29T03:34:15;4.90;99.90
15617;DHT22;7908;51.688;7.130;2023-03-29T03:36:45;4.90;99.90
15617;DHT22;7908;51.688;7.130;2023-03-29T03:39:14;5.00;99.90
15617;DHT22;7908;51.688;7.130;2023-03-29T03:41:43;5.00;99.90
15617;DHT22;7908;51.688;7.130;2023-03-29T03:44:12;5.10;99.90
15617;DHT22;7908;51.688;7.130;2023-03-29T03:46:40;5.10;99.90
15617;DHT22;7908;51.688;7.130;2023-03-29T03:49:09;5.10;99.90
15617;DHT22;7908;51.688;7.130;2023-03-29T03:51:39;5.20;99.90
15617;DHT22;7908;51.688;7.130;2023-03-29T03:54:11;5.20;99.90
15617;DHT22;7908;51.688;7.130;2023-03-29T03:56:40;5.20;99.90
15617;DHT22;7908;51.688;7.130;2023-03-29T03:59:09;5.20;99.90
15617;DHT22;7908;51.688;7.130;2023-03-29T04:01:38;5.20;99.90
15617;DHT22;7908;51.688;7.130;2023-03-29T04:04:09;5.30;99.90
15617;DHT22;7908;51.688;7.130;2023-03-29T04:06:40;5.40;99.90
15617;DHT22;7908;51.688;7.130;2023-03-29T04:09:10;5.40;99.90
15617;DHT22;7908;51.688;7.130;2023-03-29T04:11:38;5.50;99.90
15617;DHT22;7908;51.688;7.130;2023-03-29T04:14:07;5.60;99.90
15617;DHT22;7908;51.688;7.130;2023-03-29T04:16:37;5.60;99.90
15617;DHT22;7908;51.688;7.130;2023-03-29T04:19:06;5.60;99.90
15617;DHT22;7908;51.688;7.130;2023-03-29T04:21:34;5.60;99.90
15617;DHT22;7908;51.688;7.130;2023-03-29T04:24:05;5.60;99.90
15617;DHT22;7908;51.688;7.130;2023-03-29T04:26:33;5.60;99.90
15617;DHT22;7908;51.688;7.130;2023-03-29T04:29:02;5.60;99.90
15617;DHT22;7908;51.688;7.130;2023-03-29T04:31:31;5.70;99.90
15617;DHT22;7908;51.688;7.130;2023-03-29T04:34:00;5.70;99.90
15617;DHT22;7908;51.688;7.130;2023-03-29T04:36:29;5.70;99.90
15617;DHT22;7908;51.688;7.130;2023-03-29T04:38:57;5.60;99.90
15617;DHT22;7908;51.688;7.130;2023-03-29T04:41:29;5.70;99.90
15617;DHT22;7908;51.688;7.130;2023-03-29T04:43:58;5.60;99.90
15617;DHT22;7908;51.688;7.130;2023-03-29T04:46:29;5.70;99.90
15617;DHT22;7908;51.688;7.130;2023-03-29T04:48:58;5.60;99.90
15617;DHT22;7908;51.688;7.130;2023-03-29T04:51:27;5.70;99.90
15617;DHT22;7908;51.688;7.130;2023-03-29T04:53:55;5.70;99.90
15617;DHT22;7908;51.688;7.130;2023-03-29T04:56:24;5.70;99.90
15617;DHT22;7908;51.688;7.130;2023-03-29T04:58:54;5.70;99.90
15617;DHT22;7908;51.688;7.130;2023-03-29T05:01:23;5.70;99.90
15617;DHT22;7908;51.688;7.130;2023-03-29T05:03:51;5.70;99.90
15617;DHT22;7908;51.688;7.130;2023-03-29T05:06:20;5.70;99.90
15617;DHT22;7908;51.688;7.130;2023-03-29T05:08:49;5.70;99.90
15617;DHT22;7908;51.688;7.130;2023-03-29T05:11:18;5.70;99.90
15617;DHT22;7908;51.688;7.130;2023-03-29T05:13:47;5.70;99.90
15617;DHT22;7908;51.688;7.130;2023-03-29T05:16:17;5.80;99.90
15617;DHT22;7908;51.688;7.130;2023-03-29T05:18:46;5.80;99.90
15617;DHT22;7908;51.688;7.130;2023-03-29T05:21:16;5.80;99.90
15617;DHT22;7908;51.688;7.130;2023-03-29T05:23:44;5.80;99.90
15617;DHT22;7908;51.688;7.130;2023-03-29T05:26:13;5.80;99.90
15617;DHT22;7908;51.688;7.130;2023-03-29T05:28:42;5.80;99.90
15617;DHT22;7908;51.688;7.130;2023-03-29T05:31:10;5.80;99.90
15617;DHT22;7908;51.688;7.130;2023-03-29T05:33:45;5.80;99.90
15617;DHT22;7908;51.688;7.130;2023-03-29T05:36:16;5.90;99.90
15617;DHT22;7908;51.688;7.130;2023-03-29T05:38:45;5.80;99.90
15617;DHT22;7908;51.688;7.130;2023-03-29T05:41:14;5.80;99.90
15617;DHT22;7908;51.688;7.130;2023-03-29T05:43:44;5.80;99.90
15617;DHT22;7908;51.688;7.130;2023-03-29T05:46:12;5.80;99.90
15617;DHT22;7908;51.688;7.130;2023-03-29T05:48:41;5.90;99.90
15617;DHT22;7908;51.688;7.130;2023-03-29T05:51:11;5.90;99.90
15617;DHT22;7908;51.688;7.130;2023-03-29T05:53:40;5.90;99.90
15617;DHT22;7908;51.688;7.130;2023-03-29T05:56:08;6.00;99.90
15617;DHT22;7908;51.688;7.130;2023-03-29T05:58:37;5.90;99.90
15617;DHT22;7908;51.688;7.130;2023-03-29T06:01:10;6.00;99.90
15617;DHT22;7908;51.688;7.130;2023-03-29T06:03:39;6.00;99.90
15617;DHT22;7908;51.688;7.130;2023-03-29T06:06:08;6.00;99.90
15617;DHT22;7908;51.688;7.130;2023-03-29T06:08:38;6.10;99.90
15617;DHT22;7908;51.688;7.130;2023-03-29T06:11:08;6.10;99.90
15617;DHT22;7908;51.688;7.130;2023-03-29T06:13:37;6.20;99.90
15617;DHT22;7908;51.688;7.130;2023-03-29T06:16:09;6.10;99.90
15617;DHT22;7908;51.688;7.130;2023-03-29T06:18:39;6.20;99.90
15617;DHT22;7908;51.688;7.130;2023-03-29T06:21:08;6.20;99.90
15617;DHT22;7908;51.688;7.130;2023-03-29T06:23:38;6.20;99.90
15617;DHT22;7908;51.688;7.130;2023-03-29T06:26:09;6.20;99.90
15617;DHT22;7908;51.688;7.130;2023-03-29T06:28:38;6.30;99.90
15617;DHT22;7908;51.688;7.130;2023-03-29T06:31:08;6.30;99.90
15617;DHT22;7908;51.688;7.130;2023-03-29T06:33:36;6.40;99.90
15617;DHT22;7908;51.688;7.130;2023-03-29T06:36:06;6.40;99.90
15617;DHT22;7908;51.688;7.130;2023-03-29T06:38:36;6.50;99.90
15617;DHT22;7908;51.688;7.130;2023-03-29T06:41:07;6.50;99.90
15617;DHT22;7908;51.688;7.130;2023-03-29T06:43:37;6.50;99.90
15617;DHT22;7908;51.688;7.130;2023-03-29T06:46:06;6.50;99.90
15617;DHT22;7908;51.688;7.130;2023-03-29T06:48:38;6.50;99.90
15617;DHT22;7908;51.688;7.130;2023-03-29T06:51:08;6.60;99.90
15617;DHT22;7908;51.688;7.130;2023-03-29T06:53:37;6.60;99.90
15617;DHT22;7908;51.688;7.130;2023-03-29T06:56:08;6.70;99.90
15617;DHT22;7908;51.688;7.130;2023-03-29T06:58:38;6.70;99.90
15617;DHT22;7908;51.688;7.130;2023-03-29T07:01:07;6.80;99.90
15617;DHT22;7908;51.688;7.130;2023-03-29T07:03:36;6.90;99.90
15617;DHT22;7908;51.688;7.130;2023-03-29T07:06:05;6.90;99.90
15617;DHT22;7908;51.688;7.130;2023-03-29T07:08:38;7.00;99.90
15617;DHT22;7908;51.688;7.130;2023-03-29T07:11:13;7.00;99.90
15617;DHT22;7908;51.688;7.130;2023-03-29T07:13:42;7.10;99.90
15617;DHT22;7908;51.688;7.130;2023-03-29T07:16:12;7.20;99.90
15617;DHT22;7908;51.688;7.130;2023-03-29T07:18:42;7.20;99.90
15617;DHT22;7908;51.688;7.130;2023-03-29T07:21:11;7.20;99.90
15617;DHT22;7908;51.688;7.130;2023-03-29T07:23:40;7.30;99.90
15617;DHT22;7908;51.688;7.130;2023-03-29T07:26:11;7.30;99.90
15617;DHT22;7908;51.688;7.130;2023-03-29T07:28:54;7.40;99.90
15617;DHT22;7908;51.688;7.130;2023-03-29T07:31:23;7.40;99.90
15617;DHT22;7908;51.688;7.130;2023-03-29T07:33:52;7.50;99.90
15617;DHT22;7908;51.688;7.130;2023-03-29T07:36:22;7.50;99.90
15617;DHT22;7908;51.688;7.130;2023-03-29T07:38:51;7.60;99.90
15617;DHT22;7908;51.688;7.130;2023-03-29T07:41:23;7.60;99.90
15617;DHT22;7908;51.688;7.130;2023-03-29T07:43:52;7.60;99.90
15617;DHT22;7908;51.688;7.130;2023-03-29T07:46:22;7.70;99.90
15617;DHT22;7908;51.688;7.130;2023-03-29T07:48:51;7.70;99.90
15617;DHT22;7908;51.688;7.130;2023-03-29T07:51:20;7.70;99.90
15617;DHT22;7908;51.688;7.130;2023-03-29T07:53:49;7.70;99.90
15617;DHT22;7908;51.688;7.130;2023-03-29T07:56:18;7.80;99.90
15617;DHT22;7908;51.688;7.130;2023-03-29T07:58:48;7.80;99.90
15617;DHT22;7908;51.688;7.130;2023-03-29T08:01:18;7.90;99.90
15617;DHT22;7908;51.688;7.130;2023-03-29T08:03:47;8.00;99.90
15617;DHT22;7908;51.688;7.130;2023-03-29T08:06:16;8.00;99.90
15617;DHT22;7908;51.688;7.130;2023-03-29T08:08:45;8.00;99.90
15617;DHT22;7908;51.688;7.130;2023-03-29T08:11:14;8.00;99.90
15617;DHT22;7908;51.688;7.130;2023-03-29T08:13:43;8.00;99.90
15617;DHT22;7908;51.688;7.130;2023-03-29T08:16:13;8.00;99.90
15617;DHT22;7908;51.688;7.130;2023-03-29T08:18:43;8.10;99.90
15617;DHT22;7908;51.688;7.130;2023-03-29T08:21:12;8.10;99.90
15617;DHT22;7908;51.688;7.130;2023-03-29T08:23:42;8.20;99.90
15617;DHT22;7908;51.688;7.130;2023-03-29T08:26:11;8.20;99.90
15617;DHT22;7908;51.688;7.130;2023-03-29T08:28:39;8.30;99.90
15617;DHT22;7908;51.688;7.130;2023-03-29T08:31:08;8.40;99.90
15617;DHT22;7908;51.688;7.130;2023-03-29T08:33:39;8.40;99.90
15617;DHT22;7908;51.688;7.130;2023-03-29T08:36:10;8.40;99.90
15617;DHT22;7908;51.688;7.130;2023-03-29T08:38:39;8.40;99.90
15617;DHT22;7908;51.688;7.130;2023-03-29T08:41:24;8.30;99.90
15617;DHT22;7908;51.688;7.130;2023-03-29T08:44:03;8.30;99.90
15617;DHT22;7908;51.688;7.130;2023-03-29T08:46:41;8.30;99.90
15617;DHT22;7908;51.688;7.130;2023-03-29T08:49:13;8.40;99.90
15617;DHT22;7908;51.688;7.130;2023-03-29T08:51:44;8.50;99.90
15617;DHT22;7908;51.688;7.130;2023-03-29T08:54:17;8.50;99.90
15617;DHT22;7908;51.688;7.130;2023-03-29T08:56:49;8.50;99.90
15617;DHT22;7908;51.688;7.130;2023-03-29T08:59:22;8.50;99.90
15617;DHT22;7908;51.688;7.130;2023-03-29T09:01:55;8.60;99.90
15617;DHT22;7908;51.688;7.130;2023-03-29T09:04:29;8.60;99.90
15617;DHT22;7908;51.688;7.130;2023-03-29T09:06:58;8.70;99.90
15617;DHT22;7908;51.688;7.130;2023-03-29T09:09:32;8.70;99.90
15617;DHT22;7908;51.688;7.130;2023-03-29T09:12:09;8.70;99.90
15617;DHT22;7908;51.688;7.130;2023-03-29T09:14:55;8.80;99.90
15617;DHT22;7908;51.688;7.130;2023-03-29T09:17:35;8.90;99.90
15617;DHT22;7908;51.688;7.130;2023-03-29T09:20:18;8.90;99.90
15617;DHT22;7908;51.688;7.130;2023-03-29T09:22:57;8.90;99.90
15617;DHT22;7908;51.688;7.130;2023-03-29T09:25:40;9.00;99.90
15617;DHT22;7908;51.688;7.130;2023-03-29T09:28:24;9.10;99.90
15617;DHT22;7908;51.688;7.130;2023-03-29T09:30:58;9.20;99.90
15617;DHT22;7908;51.688;7.130;2023-03-29T09:33:31;9.30;99.90
15617;DHT22;7908;51.688;7.130;2023-03-29T09:36:10;9.40;99.90
15617;DHT22;7908;51.688;7.130;2023-03-29T09:38:46;9.40;99.90
15617;DHT22;7908;51.688;7.130;2023-03-29T09:41:21;9.40;99.90
15617;DHT22;7908;51.688;7.130;2023-03-29T09:43:54;9.40;99.90
15617;DHT22;7908;51.688;7.130;2023-03-29T09:46:27;9.40;99.90
15617;DHT22;7908;51.688;7.130;2023-03-29T09:48:56;9.40;99.90
15617;DHT22;7908;51.688;7.130;2023-03-29T09:51:29;9.40;99.90
15617;DHT22;7908;51.688;7.130;2023-03-29T09:54:00;9.40;99.90
15617;DHT22;7908;51.688;7.130;2023-03-29T09:56:29;9.40;99.90
15617;DHT22;7908;51.688;7.130;2023-03-29T09:58:59;9.30;99.90
15617;DHT22;7908;51.688;7.130;2023-03-29T10:01:35;9.30;99.90
15617;DHT22;7908;51.688;7.130;2023-03-29T10:04:08;9.30;99.90
15617;DHT22;7908;51.688;7.130;2023-03-29T10:06:44;9.30;99.90
15617;DHT22;7908;51.688;7.130;2023-03-29T10:09:18;9.30;99.90
15617;DHT22;7908;51.688;7.130;2023-03-29T10:11:51;9.30;99.90
15617;DHT22;7908;51.688;7.130;2023-03-29T10:14:31;9.30;99.90
15617;DHT22;7908;51.688;7.130;2023-03-29T10:17:04;9.40;99.90
15617;DHT22;7908;51.688;7.130;2023-03-29T10:19:34;9.40;99.90
15617;DHT22;7908;51.688;7.130;2023-03-29T10:22:13;9.50;99.90
15617;DHT22;7908;51.688;7.130;2023-03-29T10:24:47;9.60;99.90
15617;DHT22;7908;51.688;7.130;2023-03-29T10:27:20;9.70;99.90
15617;DHT22;7908;51.688;7.130;2023-03-29T10:29:51;9.90;99.90
15617;DHT22;7908;51.688;7.130;2023-03-29T10:32:27;9.90;99.90
15617;DHT22;7908;51.688;7.130;2023-03-29T10:35:01;10.00;99.90
15617;DHT22;7908;51.688;7.130;2023-03-29T10:37:39;10.00;99.90
15617;DHT22;7908;51.688;7.130;2023-03-29T10:40:18;10.10;99.90
15617;DHT22;7908;51.688;7.130;2023-03-29T10:42:50;10.20;99.90
15617;DHT22;7908;51.688;7.130;2023-03-29T10:45:24;10.40;99.90
15617;DHT22;7908;51.688;7.130;2023-03-29T10:47:55;10.50;99.90
15617;DHT22;7908;51.688;7.130;2023-03-29T10:50:31;10.50;99.90
15617;DHT22;7908;51.688;7.130;2023-03-29T10:53:09;10.60;99.90
15617;DHT22;7908;51.688;7.130;2023-03-29T10:55:48;10.80;99.90
15617;DHT22;7908;51.688;7.130;2023-03-29T10:58:30;10.90;99.90
15617;DHT22;7908;51.688;7.130;2023-03-29T11:01:01;11.10;99.90
15617;DHT22;7908;51.688;7.130;2023-03-29T11:03:57;11.30;99.90
15617;DHT22;7908;51.688;7.130;2023-03-29T11:06:33;11.20;99.90
15617;DHT22;7908;51.688;7.130;2023-03-29T11:09:15;11.40;99.90
15617;DHT22;7908;51.688;7.130;2023-03-29T11:12:03;11.40;99.90
15617;DHT22;7908;51.688;7.130;2023-03-29T11:14:51;11.50;99.90
15617;DHT22;7908;51.688;7.130;2023-03-29T11:17:37;11.60;99.90
15617;DHT22;7908;51.688;7.130;2023-03-29T11:20:18;11.70;99.90
15617;DHT22;7908;51.688;7.130;2023-03-29T11:22:55;11.90;99.90
15617;DHT22;7908;51.688;7.130;2023-03-29T11:25:39;12.00;99.90
15617;DHT22;7908;51.688;7.130;2023-03-29T11:28:16;12.20;99.90
15617;DHT22;7908;51.688;7.130;2023-03-29T11:30:52;12.30;99.90
15617;DHT22;7908;51.688;7.130;2023-03-29T11:33:36;12.40;99.90
15617;DHT22;7908;51.688;7.130;2023-03-29T11:36:13;12.50;99.90
15617;DHT22;7908;51.688;7.130;2023-03-29T11:38:54;12.50;99.90
15617;DHT22;7908;51.688;7.130;2023-03-29T11:41:30;12.40;99.90
15617;DHT22;7908;51.688;7.130;2023-03-29T11:44:04;12.40;99.90
15617;DHT22;7908;51.688;7.130;2023-03-29T11:46:35;12.40;99.90
15617;DHT22;7908;51.688;7.130;2023-03-29T11:49:11;12.40;99.90
15617;DHT22;7908;51.688;7.130;2023-03-29T11:51:43;12.50;99.90
15617;DHT22;7908;51.688;7.130;2023-03-29T11:54:18;12.70;99.90
15617;DHT22;7908;51.688;7.130;2023-03-29T11:56:54;12.80;99.90
15617;DHT22;7908;51.688;7.130;2023-03-29T11:59:31;13.00;99.90
15617;DHT22;7908;51.688;7.130;2023-03-29T12:02:07;13.10;99.90
15617;DHT22;7908;51.688;7.130;2023-03-29T12:04:43;13.20;99.90
15617;DHT22;7908;51.688;7.130;2023-03-29T12:07:18;13.40;99.90
15617;DHT22;7908;51.688;7.130;2023-03-29T12:09:52;13.50;99.90
15617;DHT22;7908;51.688;7.130;2023-03-29T12:12:27;13.70;99.90
15617;DHT22;7908;51.688;7.130;2023-03-29T12:15:03;13.80;99.90
15617;DHT22;7908;51.688;7.130;2023-03-29T12:17:36;13.80;99.90
15617;DHT22;7908;51.688;7.130;2023-03-29T12:20:14;13.90;99.90
15617;DHT22;7908;51.688;7.130;2023-03-29T12:22:46;13.80;99.90
15617;DHT22;7908;51.688;7.130;2023-03-29T12:25:20;13.70;99.90
15617;DHT22;7908;51.688;7.130;2023-03-29T12:28:03;13.50;99.90
15617;DHT22;7908;51.688;7.130;2023-03-29T12:30:53;13.50;99.90
15617;DHT22;7908;51.688;7.130;2023-03-29T12:36:50;13.40;99.90
15617;DHT22;7908;51.688;7.130;2023-03-29T12:39:23;13.40;99.90
15617;DHT22;7908;51.688;7.130;2023-03-29T12:42:01;13.50;99.90
15617;DHT22;7908;51.688;7.130;2023-03-29T12:44:34;13.50;99.90
15617;DHT22;7908;51.688;7.130;2023-03-29T12:47:04;13.40;99.90
15617;DHT22;7908;51.688;7.130;2023-03-29T12:49:34;13.30;99.90
15617;DHT22;7908;51.688;7.130;2023-03-29T12:52:16;13.40;99.90
15617;DHT22;7908;51.688;7.130;2023-03-29T12:54:53;13.40;99.90
15617;DHT22;7908;51.688;7.130;2023-03-29T12:57:27;13.50;99.90
15617;DHT22;7908;51.688;7.130;2023-03-29T13:00:09;13.60;99.90
15617;DHT22;7908;51.688;7.130;2023-03-29T13:02:39;13.60;99.90
15617;DHT22;7908;51.688;7.130;2023-03-29T13:05:26;13.70;99.90
15617;DHT22;7908;51.688;7.130;2023-03-29T13:07:56;13.80;99.90
15617;DHT22;7908;51.688;7.130;2023-03-29T13:10:36;13.80;99.90
15617;DHT22;7908;51.688;7.130;2023-03-29T13:13:11;13.90;99.90
15617;DHT22;7908;51.688;7.130;2023-03-29T13:15:44;13.90;99.90
15617;DHT22;7908;51.688;7.130;2023-03-29T13:18:35;13.90;99.90
15617;DHT22;7908;51.688;7.130;2023-03-29T13:21:15;14.00;99.90
15617;DHT22;7908;51.688;7.130;2023-03-29T13:23:58;14.20;99.90
15617;DHT22;7908;51.688;7.130;2023-03-29T13:26:46;14.40;99.90
15617;DHT22;7908;51.688;7.130;2023-03-29T13:29:38;14.60;99.90
15617;DHT22;7908;51.688;7.130;2023-03-29T13:32:35;14.90;99.90
15617;DHT22;7908;51.688;7.130;2023-03-29T13:35:16;15.10;99.90
15617;DHT22;7908;51.688;7.130;2023-03-29T13:37:56;15.20;99.90
15617;DHT22;7908;51.688;7.130;2023-03-29T13:40:32;15.30;99.90
15617;DHT22;7908;51.688;7.130;2023-03-29T13:43:08;15.40;99.90
15617;DHT22;7908;51.688;7.130;2023-03-29T13:45:38;15.40;99.90
15617;DHT22;7908;51.688;7.130;2023-03-29T13:48:24;15.30;99.90
15617;DHT22;7908;51.688;7.130;2023-03-29T13:50:57;15.20;99.90
15617;DHT22;7908;51.688;7.130;2023-03-29T13:53:30;15.10;99.90
15617;DHT22;7908;51.688;7.130;2023-03-29T13:56:01;15.20;99.90
15617;DHT22;7908;51.688;7.130;2023-03-29T13:58:35;15.20;99.90
15617;DHT22;7908;51.688;7.130;2023-03-29T14:01:10;15.10;99.90
15617;DHT22;7908;51.688;7.130;2023-03-29T14:03:45;15.10;99.90
15617;DHT22;7908;51.688;7.130;2023-03-29T14:06:20;15.10;99.90
15617;DHT22;7908;51.688;7.130;2023-03-29T14:08:50;15.10;99.90
15617;DHT22;7908;51.688;7.130;2023-03-29T14:11:23;15.10;99.90
15617;DHT22;7908;51.688;7.130;2023-03-29T14:13:54;15.10;99.90
15617;DHT22;7908;51.688;7.130;2023-03-29T14:16:26;15.20;99.90
15617;DHT22;7908;51.688;7.130;2023-03-29T14:19:00;15.30;99.90
15617;DHT22;7908;51.688;7.130;2023-03-29T14:21:30;15.30;99.90
15617;DHT22;7908;51.688;7.130;2023-03-29T14:24:00;15.30;99.90
15617;DHT22;7908;51.688;7.130;2023-03-29T14:26:30;15.30;99.90
15617;DHT22;7908;51.688;7.130;2023-03-29T14:29:01;15.20;99.90
15617;DHT22;7908;51.688;7.130;2023-03-29T14:31:33;15.10;99.90
15617;DHT22;7908;51.688;7.130;2023-03-29T14:34:06;15.10;99.90
15617;DHT22;7908;51.688;7.130;2023-03-29T14:36:38;15.10;99.90
15617;DHT22;7908;51.688;7.130;2023-03-29T14:39:12;15.10;99.90
15617;DHT22;7908;51.688;7.130;2023-03-29T14:41:47;15.20;99.90
15617;DHT22;7908;51.688;7.130;2023-03-29T14:44:19;15.20;99.90
15617;DHT22;7908;51.688;7.130;2023-03-29T14:46:49;15.20;99.90
15617;DHT22;7908;51.688;7.130;2023-03-29T14:49:21;15.30;99.90
15617;DHT22;7908;51.688;7.130;2023-03-29T14:51:52;15.20;99.90
15617;DHT22;7908;51.688;7.130;2023-03-29T14:54:22;15.30;99.90
15617;DHT22;7908;51.688;7.130;2023-03-29T14:56:53;15.30;99.90
15617;DHT22;7908;51.688;7.130;2023-03-29T14:59:27;15.30;99.90
15617;DHT22;7908;51.688;7.130;2023-03-29T15:01:57;15.30;99.90
15617;DHT22;7908;51.688;7.130;2023-03-29T15:04:33;15.40;99.90
15617;DHT22;7908;51.688;7.130;2023-03-29T15:07:03;15.50;99.90
15617;DHT22;7908;51.688;7.130;2023-03-29T15:09:33;15.60;99.90
15617;DHT22;7908;51.688;7.130;2023-03-29T15:12:04;15.60;99.90
15617;DHT22;7908;51.688;7.130;2023-03-29T15:14:34;15.60;99.90
15617;DHT22;7908;51.688;7.130;2023-03-29T15:17:22;15.60;99.90
15617;DHT22;7908;51.688;7.130;2023-03-29T15:20:18;15.50;99.90
15617;DHT22;7908;51.688;7.130;2023-03-29T15:22:56;15.30;99.90
15617;DHT22;7908;51.688;7.130;2023-03-29T16:55:49;14.50;99.90
15617;DHT22;7908;51.688;7.130;2023-03-29T16:58:18;14.50;99.90
15617;DHT22;7908;51.688;7.130;2023-03-29T17:00:49;14.40;99.90
15617;DHT22;7908;51.688;7.130;2023-03-29T17:03:20;14.40;99.90
15617;DHT22;7908;51.688;7.130;2023-03-29T17:05:50;14.30;99.90
15617;DHT22;7908;51.688;7.130;2023-03-29T17:08:23;14.40;99.90
15617;DHT22;7908;51.688;7.130;2023-03-29T17:10:59;14.30;99.90
15617;DHT22;7908;51.688;7.130;2023-03-29T17:13:31;14.30;99.90
15617;DHT22;7908;51.688;7.130;2023-03-29T17:16:03;14.30;99.90
15617;DHT22;7908;51.688;7.130;2023-03-29T17:18:33;14.30;99.90
15617;DHT22;7908;51.688;7.130;2023-03-29T17:21:03;14.30;99.90
15617;DHT22;7908;51.688;7.130;2023-03-29T17:23:32;14.30;99.90
15617;DHT22;7908;51.688;7.130;2023-03-29T17:26:03;14.30;99.90
15617;DHT22;7908;51.688;7.130;2023-03-29T17:28:33;14.30;99.90
15617;DHT22;7908;51.688;7.130;2023-03-29T17:31:03;14.30;99.90
15617;DHT22;7908;51.688;7.130;2023-03-29T17:33:34;14.20;99.90
15617;DHT22;7908;51.688;7.130;2023-03-29T17:36:05;14.20;99.90
15617;DHT22;7908;51.688;7.130;2023-03-29T17:38:34;14.20;99.90
15617;DHT22;7908;51.688;7.130;2023-03-29T17:41:08;14.10;99.90
15617;DHT22;7908;51.688;7.130;2023-03-29T17:43:39;14.10;99.90
15617;DHT22;7908;51.688;7.130;2023-03-29T17:46:08;14.10;99.90
15617;DHT22;7908;51.688;7.130;2023-03-29T17:48:38;14.10;99.90
15617;DHT22;7908;51.688;7.130;2023-03-29T17:51:07;14.00;99.90
15617;DHT22;7908;51.688;7.130;2023-03-29T17:53:36;14.00;99.90
15617;DHT22;7908;51.688;7.130;2023-03-29T17:56:08;14.00;99.90
15617;DHT22;7908;51.688;7.130;2023-03-29T17:58:38;14.00;99.90
15617;DHT22;7908;51.688;7.130;2023-03-29T18:01:09;13.90;99.90
15617;DHT22;7908;51.688;7.130;2023-03-29T18:03:39;13.90;99.90
15617;DHT22;7908;51.688;7.130;2023-03-29T18:06:11;13.90;99.90